Time;durP1;ratioP1;P1;durP2;ratioP2;P2;SDS_P1;SDS_P2;PMS_P1;PMS_P2;Temp;Humidity;BMP_temperature;BMP_pressure;BME280_temperature;BME280_humidity;BME280_pressure;Samples;Min_cycle;Max_cycle;Signal;HPM_P1;HPM_P2
2021/11/06 00:00:07;;;;;;;;;;;23.10;51.80;;;;;;694211;28;838;-83
2021/11/06 00:00:28;;;;;;;;;;;23.20;52.00;;;;;;694574;28;2312;-82
2021/11/06 00:00:48;;;;;;;;;;;23.10;51.90;;;;;;697178;28;857;-82
2021/11/06 00:01:09;;;;;;;;;;;23.20;52.00;;;;;;697114;28;878;-85
2021/11/06 00:01:30;;;;;;;;;;;23.20;52.00;;;;;;697149;28;882;-87
2021/11/06 00:01:50;;;;;;;;;;;23.10;51.90;;;;;;697161;28;870;-84
2021/11/06 00:02:11;;;;;;;;;;;23.20;52.00;;;;;;697098;28;921;-84
2021/11/06 00:02:32;;;;;;;;;;;23.10;51.90;;;;;;697027;28;918;-85
2021/11/06 00:02:53;;;;;;;;;;;23.10;51.90;;;;;;697179;28;888;-81
2021/11/06 00:03:13;;;;;;;;;;;23.20;52.00;;;;;;697127;28;942;-75
2021/11/06 00:03:34;;;;;;;;;;;23.20;52.00;;;;;;696967;28;905;-87
2021/11/06 00:03:54;;;;;;;;;;;23.10;51.80;;;;;;697155;28;802;-86
2021/11/06 00:04:15;;;;;;;;;;;23.10;52.00;;;;;;697226;28;975;-74
2021/11/06 00:04:38;;;;;;;;;;;23.10;51.90;;;;;;696917;28;905;-85
2021/11/06 00:04:59;;;;;;;;;;;23.10;51.80;;;;;;697065;28;814;-88
2021/11/06 00:05:19;;;;;;;;;;;23.10;51.90;;;;;;697096;28;814;-85
2021/11/06 00:05:40;;;;;;;;;;;23.10;52.00;;;;;;696814;28;1229;-82
2021/11/06 00:06:00;;;;;;;;;;;23.10;52.00;;;;;;694258;28;846;-84
2021/11/06 00:06:21;;;;;;;;;;;23.20;52.00;;;;;;696213;28;1215;-82
2021/11/06 00:06:44;;;;;;;;;;;23.20;52.00;;;;;;697091;28;846;-77
2021/11/06 00:07:05;;;;;;;;;;;23.20;51.90;;;;;;696988;28;925;-81
2021/11/06 00:07:25;;;;;;;;;;;23.20;52.00;;;;;;696944;28;865;-78
2021/11/06 00:07:47;;;;;;;;;;;23.10;51.90;;;;;;697149;28;1297;-80
2021/11/06 00:08:07;;;;;;;;;;;23.20;52.00;;;;;;697140;28;818;-76
2021/11/06 00:08:28;;;;;;;;;;;23.20;52.00;;;;;;697049;28;897;-77
2021/11/06 00:08:49;;;;;;;;;;;23.20;52.00;;;;;;697140;28;802;-82
2021/11/06 00:09:09;;;;;;;;;;;23.20;52.00;;;;;;697007;28;928;-76
2021/11/06 00:09:30;;;;;;;;;;;23.20;52.00;;;;;;696956;28;1048;-84
2021/11/06 00:09:50;;;;;;;;;;;23.20;52.00;;;;;;697163;28;925;-84
2021/11/06 00:10:12;;;;;;;;;;;23.20;52.00;;;;;;697030;28;834;-80
2021/11/06 00:10:32;;;;;;;;;;;23.20;52.00;;;;;;697051;28;864;-81
2021/11/06 00:10:53;;;;;;;;;;;23.20;52.00;;;;;;697086;28;834;-78
2021/11/06 00:11:14;;;;;;;;;;;23.20;52.00;;;;;;697070;28;935;-80
2021/11/06 00:11:34;;;;;;;;;;;23.20;52.00;;;;;;696913;28;1301;-77
2021/11/06 00:11:55;;;;;;;;;;;23.20;52.00;;;;;;697066;28;853;-80
2021/11/06 00:12:16;;;;;;;;;;;23.20;52.00;;;;;;697176;28;865;-80
2021/11/06 00:12:37;;;;;;;;;;;23.20;52.00;;;;;;697059;28;814;-83
2021/11/06 00:12:58;;;;;;;;;;;23.20;52.00;;;;;;697018;28;928;-80
2021/11/06 00:13:18;;;;;;;;;;;23.20;52.00;;;;;;697191;28;898;-79
2021/11/06 00:13:39;;;;;;;;;;;23.20;52.00;;;;;;697086;28;873;-80
2021/11/06 00:13:59;;;;;;;;;;;23.20;52.00;;;;;;697051;28;834;-76
2021/11/06 00:14:20;;;;;;;;;;;23.20;52.00;;;;;;697151;28;986;-76
2021/11/06 00:14:40;;;;;;;;;;;23.20;52.00;;;;;;696946;28;929;-79
2021/11/06 00:15:01;;;;;;;;;;;23.20;52.00;;;;;;697136;28;802;-82
2021/11/06 00:15:22;;;;;;;;;;;23.20;52.00;;;;;;697163;28;814;-77
2021/11/06 00:15:43;;;;;;;;;;;23.20;52.00;;;;;;697037;28;881;-78
2021/11/06 00:16:04;;;;;;;;;;;23.20;52.00;;;;;;697131;28;925;-76
2021/11/06 00:16:24;;;;;;;;;;;23.20;52.00;;;;;;697011;28;897;-76
2021/11/06 00:16:45;;;;;;;;;;;23.20;52.00;;;;;;697131;28;822;-79
2021/11/06 00:17:06;;;;;;;;;;;23.20;52.00;;;;;;697076;28;873;-77
2021/11/06 00:17:29;;;;;;;;;;;23.20;52.00;;;;;;694036;28;1231;-77
2021/11/06 00:17:50;;;;;;;;;;;23.20;52.00;;;;;;694059;28;857;-81
2021/11/06 00:18:10;;;;;;;;;;;23.20;52.00;;;;;;694104;28;910;-81
2021/11/06 00:18:31;;;;;;;;;;;23.20;52.00;;;;;;694126;28;779;-80
2021/11/06 00:18:51;;;;;;;;;;;23.20;52.00;;;;;;694236;28;921;-77
2021/11/06 00:19:12;;;;;;;;;;;23.20;52.00;;;;;;694739;28;902;-79
2021/11/06 00:19:33;;;;;;;;;;;23.20;52.00;;;;;;697024;28;814;-80
2021/11/06 00:19:53;;;;;;;;;;;23.20;52.10;;;;;;696850;28;924;-76
2021/11/06 00:20:15;;;;;;;;;;;23.20;52.00;;;;;;697121;28;1969;-78
2021/11/06 00:20:38;;;;;;;;;;;23.10;51.90;;;;;;697014;28;826;-81
2021/11/06 00:20:58;;;;;;;;;;;23.20;52.00;;;;;;696891;28;1280;-82
2021/11/06 00:21:19;;;;;;;;;;;23.20;52.10;;;;;;696939;28;826;-78
2021/11/06 00:21:40;;;;;;;;;;;23.20;52.10;;;;;;697094;28;858;-78
2021/11/06 00:22:00;;;;;;;;;;;23.20;52.00;;;;;;697009;28;890;-81
2021/11/06 00:22:21;;;;;;;;;;;23.10;51.90;;;;;;697136;28;790;-80
2021/11/06 00:22:43;;;;;;;;;;;23.20;52.00;;;;;;696711;28;1233;-76
2021/11/06 00:23:03;;;;;;;;;;;23.20;52.00;;;;;;696874;28;862;-82
2021/11/06 00:23:24;;;;;;;;;;;23.20;52.00;;;;;;696859;28;810;-80
2021/11/06 00:23:45;;;;;;;;;;;23.20;52.00;;;;;;696877;28;930;-86
2021/11/06 00:24:05;;;;;;;;;;;23.20;52.00;;;;;;696801;28;862;-83
2021/11/06 00:24:26;;;;;;;;;;;23.20;52.00;;;;;;696848;28;865;-84
2021/11/06 00:24:46;;;;;;;;;;;23.20;52.10;;;;;;697134;28;881;-83
2021/11/06 00:25:10;;;;;;;;;;;23.20;52.00;;;;;;697026;28;849;-85
2021/11/06 00:25:31;;;;;;;;;;;23.20;52.00;;;;;;697120;28;889;-80
2021/11/06 00:25:52;;;;;;;;;;;23.20;52.10;;;;;;697045;28;937;-81
2021/11/06 00:26:12;;;;;;;;;;;23.20;52.00;;;;;;697117;28;882;-80
2021/11/06 00:26:33;;;;;;;;;;;23.20;53.10;;;;;;697090;28;956;-81
2021/11/06 00:26:53;;;;;;;;;;;23.20;52.00;;;;;;697101;28;909;-81
2021/11/06 00:27:14;;;;;;;;;;;23.10;51.90;;;;;;697070;28;1199;-80
2021/11/06 00:27:35;;;;;;;;;;;23.10;52.00;;;;;;696928;28;1424;-79
2021/11/06 00:27:55;;;;;;;;;;;23.10;52.00;;;;;;696939;28;944;-78
2021/11/06 00:28:16;;;;;;;;;;;23.20;52.00;;;;;;697174;28;845;-79
2021/11/06 00:28:36;;;;;;;;;;;23.10;51.90;;;;;;696314;28;1347;-77
2021/11/06 00:28:57;;;;;;;;;;;23.20;52.00;;;;;;696828;28;791;-82
2021/11/06 00:29:19;;;;;;;;;;;23.10;52.00;;;;;;696907;28;840;-81
2021/11/06 00:29:39;;;;;;;;;;;23.20;52.00;;;;;;696799;28;940;-78
2021/11/06 00:30:00;;;;;;;;;;;23.20;52.00;;;;;;696780;28;881;-83
2021/11/06 00:30:20;;;;;;;;;;;23.20;52.00;;;;;;696914;28;755;-86
2021/11/06 00:30:41;;;;;;;;;;;23.10;52.00;;;;;;696960;28;882;-83
2021/11/06 00:31:02;;;;;;;;;;;23.10;52.00;;;;;;696924;28;882;-80
2021/11/06 00:31:22;;;;;;;;;;;23.20;52.00;;;;;;696901;28;874;-77
2021/11/06 00:31:43;;;;;;;;;;;23.10;51.90;;;;;;697076;28;790;-83
2021/11/06 00:32:04;;;;;;;;;;;23.20;52.10;;;;;;696954;28;952;-83
2021/11/06 00:32:24;;;;;;;;;;;23.20;52.00;;;;;;696936;28;910;-85
2021/11/06 00:32:45;;;;;;;;;;;23.10;52.00;;;;;;697077;28;857;-87
2021/11/06 00:33:06;;;;;;;;;;;23.20;52.00;;;;;;696955;28;877;-86
2021/11/06 00:33:26;;;;;;;;;;;23.20;52.00;;;;;;696798;28;806;-81
2021/11/06 00:33:47;;;;;;;;;;;23.20;52.00;;;;;;697051;28;917;-83
2021/11/06 00:34:07;;;;;;;;;;;23.10;52.10;;;;;;696903;28;908;-85
2021/11/06 00:34:28;;;;;;;;;;;23.10;52.10;;;;;;696996;28;846;-87
2021/11/06 00:34:48;;;;;;;;;;;23.10;52.10;;;;;;697238;28;806;-84
2021/11/06 00:35:09;;;;;;;;;;;23.20;52.10;;;;;;696950;28;819;-83
2021/11/06 00:35:30;;;;;;;;;;;23.20;52.10;;;;;;697017;28;877;-79
2021/11/06 00:35:50;;;;;;;;;;;23.10;52.20;;;;;;697065;28;917;-80
2021/11/06 00:36:11;;;;;;;;;;;23.20;52.20;;;;;;696983;28;976;-80
2021/11/06 00:36:31;;;;;;;;;;;23.20;52.10;;;;;;696861;28;818;-81
2021/11/06 00:36:52;;;;;;;;;;;23.10;52.20;;;;;;697036;28;846;-81
2021/11/06 00:37:12;;;;;;;;;;;23.10;52.10;;;;;;696978;28;869;-78
2021/11/06 00:37:33;;;;;;;;;;;23.10;52.20;;;;;;697075;28;878;-86
2021/11/06 00:37:54;;;;;;;;;;;23.10;52.10;;;;;;697031;28;786;-81
2021/11/06 00:38:14;;;;;;;;;;;23.10;52.20;;;;;;697081;28;786;-81
2021/11/06 00:38:35;;;;;;;;;;;23.10;52.20;;;;;;696232;28;1418;-82
2021/11/06 00:38:55;;;;;;;;;;;23.10;52.20;;;;;;696721;28;917;-84
2021/11/06 00:39:16;;;;;;;;;;;23.20;52.40;;;;;;696927;28;834;-84
2021/11/06 00:39:36;;;;;;;;;;;23.10;52.20;;;;;;696151;28;1600;-81
2021/11/06 00:39:57;;;;;;;;;;;23.20;52.20;;;;;;696664;28;1802;-84
2021/11/06 00:40:17;;;;;;;;;;;23.10;52.10;;;;;;696800;28;1982;-84
2021/11/06 00:40:38;;;;;;;;;;;23.20;52.30;;;;;;697007;28;908;-82
2021/11/06 00:40:59;;;;;;;;;;;23.10;52.20;;;;;;696955;28;806;-84
2021/11/06 00:41:19;;;;;;;;;;;23.20;52.20;;;;;;696920;28;1386;-83
2021/11/06 00:41:40;;;;;;;;;;;23.10;52.20;;;;;;696902;28;1493;-78
2021/11/06 00:42:01;;;;;;;;;;;23.10;52.20;;;;;;696902;28;885;-81
2021/11/06 00:42:21;;;;;;;;;;;23.10;52.30;;;;;;697087;28;814;-81
2021/11/06 00:42:42;;;;;;;;;;;23.10;53.40;;;;;;696985;28;856;-78
2021/11/06 00:43:03;;;;;;;;;;;23.20;52.40;;;;;;696824;28;1005;-81
2021/11/06 00:43:23;;;;;;;;;;;23.10;52.20;;;;;;696954;28;939;-80
2021/11/06 00:43:44;;;;;;;;;;;23.10;52.20;;;;;;697074;28;873;-80
2021/11/06 00:44:05;;;;;;;;;;;23.10;52.20;;;;;;696995;28;837;-78
2021/11/06 00:44:25;;;;;;;;;;;23.20;52.30;;;;;;696953;28;837;-79
2021/11/06 00:44:46;;;;;;;;;;;23.10;52.60;;;;;;697011;28;842;-77
2021/11/06 00:45:07;;;;;;;;;;;23.10;52.50;;;;;;696874;28;888;-75
2021/11/06 00:45:28;;;;;;;;;;;23.10;52.40;;;;;;697009;28;957;-80
2021/11/06 00:45:48;;;;;;;;;;;23.10;52.30;;;;;;697043;28;1438;-76
2021/11/06 00:46:09;;;;;;;;;;;23.10;52.30;;;;;;696859;28;944;-81
2021/11/06 00:46:29;;;;;;;;;;;23.10;52.40;;;;;;696941;28;814;-80
2021/11/06 00:46:50;;;;;;;;;;;23.10;52.40;;;;;;697115;28;956;-79
2021/11/06 00:47:11;;;;;;;;;;;23.20;52.40;;;;;;696905;28;841;-86
2021/11/06 00:47:31;;;;;;;;;;;23.10;52.60;;;;;;693905;28;1524;-78
2021/11/06 00:47:52;;;;;;;;;;;23.10;52.30;;;;;;694141;28;861;-80
2021/11/06 00:48:12;;;;;;;;;;;23.10;52.60;;;;;;694028;28;919;-79
2021/11/06 00:48:33;;;;;;;;;;;23.10;52.60;;;;;;693999;28;850;-81
2021/11/06 00:48:53;;;;;;;;;;;23.10;52.40;;;;;;694019;28;877;-82
2021/11/06 00:49:14;;;;;;;;;;;23.20;52.70;;;;;;694343;28;799;-80
2021/11/06 00:49:35;;;;;;;;;;;23.10;52.60;;;;;;696981;28;865;-78
2021/11/06 00:49:55;;;;;;;;;;;23.10;52.60;;;;;;696866;28;936;-76
2021/11/06 00:50:19;;;;;;;;;;;23.10;52.60;;;;;;696951;28;921;-78
2021/11/06 00:50:39;;;;;;;;;;;23.20;52.50;;;;;;696961;28;822;-76
2021/11/06 00:51:00;;;;;;;;;;;23.10;52.50;;;;;;697013;28;814;-75
2021/11/06 00:51:21;;;;;;;;;;;23.10;52.30;;;;;;696892;28;1218;-85
2021/11/06 00:51:41;;;;;;;;;;;23.10;52.30;;;;;;696385;28;1232;-80
2021/11/06 00:52:03;;;;;;;;;;;23.10;52.30;;;;;;696813;28;1248;-75
2021/11/06 00:52:23;;;;;;;;;;;23.20;52.40;;;;;;696807;28;965;-76
2021/11/06 00:52:45;;;;;;;;;;;23.10;52.40;;;;;;697026;28;802;-76
2021/11/06 00:53:05;;;;;;;;;;;23.10;52.30;;;;;;696838;28;814;-76
2021/11/06 00:53:26;;;;;;;;;;;23.10;52.60;;;;;;696831;28;1257;-75
2021/11/06 00:53:47;;;;;;;;;;;23.10;52.50;;;;;;693991;28;1681;-75
2021/11/06 00:54:08;;;;;;;;;;;23.10;52.60;;;;;;693973;28;807;-74
2021/11/06 00:54:29;;;;;;;;;;;23.10;52.60;;;;;;693712;28;1060;-75
2021/11/06 00:54:49;;;;;;;;;;;23.20;52.80;;;;;;694196;28;810;-78
2021/11/06 00:55:10;;;;;;;;;;;23.10;52.60;;;;;;693986;28;799;-75
2021/11/06 00:55:30;;;;;;;;;;;23.20;52.50;;;;;;694406;28;1071;-76
2021/11/06 00:55:51;;;;;;;;;;;23.10;52.60;;;;;;697025;28;786;-76
2021/11/06 00:56:12;;;;;;;;;;;23.10;52.60;;;;;;693864;28;1877;-78
2021/11/06 00:56:32;;;;;;;;;;;23.10;52.70;;;;;;693927;28;952;-76
2021/11/06 00:56:53;;;;;;;;;;;23.10;52.60;;;;;;694097;28;837;-76
2021/11/06 00:57:13;;;;;;;;;;;23.10;52.50;;;;;;694056;28;904;-75
2021/11/06 00:57:34;;;;;;;;;;;23.10;52.60;;;;;;694007;28;1293;-77
2021/11/06 00:57:54;;;;;;;;;;;23.10;52.50;;;;;;693802;28;1283;-76
2021/11/06 00:58:15;;;;;;;;;;;23.10;52.60;;;;;;694091;28;763;-75
2021/11/06 00:58:36;;;;;;;;;;;23.10;52.50;;;;;;693896;28;910;-75
2021/11/06 00:58:56;;;;;;;;;;;23.10;52.40;;;;;;693983;28;1141;-76
2021/11/06 00:59:17;;;;;;;;;;;23.10;52.30;;;;;;693981;28;893;-77
2021/11/06 00:59:37;;;;;;;;;;;23.10;52.40;;;;;;694155;28;917;-74
2021/11/06 00:59:58;;;;;;;;;;;23.10;52.50;;;;;;696850;28;853;-75
2021/11/06 01:00:19;;;;;;;;;;;23.10;52.50;;;;;;696991;28;1902;-75
2021/11/06 01:00:40;;;;;;;;;;;23.10;52.40;;;;;;696894;28;830;-76
2021/11/06 01:01:00;;;;;;;;;;;23.10;52.40;;;;;;696882;28;770;-76
2021/11/06 01:01:21;;;;;;;;;;;23.10;52.40;;;;;;696927;28;919;-74
2021/11/06 01:01:42;;;;;;;;;;;23.10;52.50;;;;;;697046;28;865;-75
2021/11/06 01:02:02;;;;;;;;;;;23.10;52.40;;;;;;696858;28;798;-75
2021/11/06 01:02:23;;;;;;;;;;;23.10;52.60;;;;;;696907;28;921;-76
2021/11/06 01:02:43;;;;;;;;;;;23.10;52.60;;;;;;697020;28;857;-75
2021/11/06 01:03:04;;;;;;;;;;;23.10;52.80;;;;;;696585;28;986;-75
2021/11/06 01:03:24;;;;;;;;;;;23.10;52.70;;;;;;696701;28;798;-75
2021/11/06 01:03:45;;;;;;;;;;;23.10;52.70;;;;;;696804;28;920;-77
2021/11/06 01:04:06;;;;;;;;;;;23.10;52.50;;;;;;696721;28;849;-78
2021/11/06 01:04:26;;;;;;;;;;;23.10;52.60;;;;;;696760;28;794;-75
2021/11/06 01:04:47;;;;;;;;;;;23.10;52.50;;;;;;695492;28;1222;-81
2021/11/06 01:05:08;;;;;;;;;;;23.10;52.50;;;;;;696872;28;1237;-74
2021/11/06 01:05:29;;;;;;;;;;;23.10;52.50;;;;;;696885;28;1178;-75
2021/11/06 01:05:49;;;;;;;;;;;23.10;52.60;;;;;;693998;28;1412;-77
2021/11/06 01:06:10;;;;;;;;;;;23.10;52.60;;;;;;693896;28;878;-75
2021/11/06 01:06:30;;;;;;;;;;;23.10;52.70;;;;;;693880;28;869;-76
2021/11/06 01:06:51;;;;;;;;;;;23.10;52.70;;;;;;693907;28;1234;-77
2021/11/06 01:07:11;;;;;;;;;;;23.10;52.60;;;;;;693864;28;918;-75
2021/11/06 01:07:32;;;;;;;;;;;23.10;52.60;;;;;;694218;28;802;-75
2021/11/06 01:07:53;;;;;;;;;;;23.20;52.60;;;;;;696947;28;905;-76
2021/11/06 01:08:13;;;;;;;;;;;23.10;52.60;;;;;;694011;28;885;-74
2021/11/06 01:08:34;;;;;;;;;;;23.10;52.60;;;;;;693939;28;826;-76
2021/11/06 01:08:54;;;;;;;;;;;23.10;52.70;;;;;;693964;28;873;-75
2021/11/06 01:09:15;;;;;;;;;;;23.10;52.60;;;;;;694106;28;852;-75
2021/11/06 01:09:35;;;;;;;;;;;23.10;52.60;;;;;;693551;28;1154;-74
2021/11/06 01:09:59;;;;;;;;;;;23.10;52.50;;;;;;694171;28;865;-74
2021/11/06 01:10:19;;;;;;;;;;;23.10;52.50;;;;;;696750;28;810;-75
2021/11/06 01:10:40;;;;;;;;;;;23.10;52.60;;;;;;696648;28;806;-74
2021/11/06 01:11:01;;;;;;;;;;;23.10;52.60;;;;;;696681;28;1364;-76
2021/11/06 01:11:21;;;;;;;;;;;23.10;52.60;;;;;;696813;28;913;-75
2021/11/06 01:11:42;;;;;;;;;;;23.10;52.60;;;;;;693865;28;1353;-75
2021/11/06 01:12:03;;;;;;;;;;;23.10;52.70;;;;;;694117;28;845;-75
2021/11/06 01:12:23;;;;;;;;;;;23.10;53.80;;;;;;693959;28;810;-75
2021/11/06 01:12:44;;;;;;;;;;;23.10;52.70;;;;;;693998;28;902;-76
2021/11/06 01:13:04;;;;;;;;;;;23.10;52.60;;;;;;693813;28;1402;-77
2021/11/06 01:13:25;;;;;;;;;;;23.10;52.60;;;;;;694297;28;866;-75
2021/11/06 01:13:45;;;;;;;;;;;23.10;52.70;;;;;;696946;28;775;-76
2021/11/06 01:14:06;;;;;;;;;;;23.10;52.50;;;;;;696816;28;905;-76
2021/11/06 01:14:27;;;;;;;;;;;23.10;53.70;;;;;;696778;28;967;-75
2021/11/06 01:14:47;;;;;;;;;;;23.10;52.70;;;;;;696962;28;897;-76
2021/11/06 01:15:09;;;;;;;;;;;23.10;52.60;;;;;;696325;28;829;-76
2021/11/06 01:15:30;;;;;;;;;;;23.10;52.70;;;;;;696682;28;890;-79
2021/11/06 01:15:50;;;;;;;;;;;23.10;52.60;;;;;;696768;28;868;-75
2021/11/06 01:16:11;;;;;;;;;;;23.10;52.60;;;;;;696721;28;854;-74
2021/11/06 01:16:32;;;;;;;;;;;23.10;52.70;;;;;;696557;28;937;-74
2021/11/06 01:16:53;;;;;;;;;;;23.10;52.70;;;;;;696757;28;960;-77
2021/11/06 01:17:13;;;;;;;;;;;23.10;52.70;;;;;;696956;28;962;-75
2021/11/06 01:17:34;;;;;;;;;;;23.10;52.70;;;;;;696945;28;802;-75
2021/11/06 01:17:55;;;;;;;;;;;23.10;52.70;;;;;;696869;28;806;-75
2021/11/06 01:18:15;;;;;;;;;;;23.10;52.80;;;;;;696936;28;897;-76
2021/11/06 01:18:36;;;;;;;;;;;23.10;52.80;;;;;;696843;28;817;-76
2021/11/06 01:18:57;;;;;;;;;;;23.10;52.80;;;;;;696946;28;881;-75
2021/11/06 01:19:17;;;;;;;;;;;23.10;52.80;;;;;;696999;28;882;-75
2021/11/06 01:19:38;;;;;;;;;;;23.10;53.00;;;;;;696858;28;869;-75
2021/11/06 01:19:58;;;;;;;;;;;23.10;52.90;;;;;;696955;28;794;-75
2021/11/06 01:20:19;;;;;;;;;;;23.10;52.80;;;;;;696973;28;1973;-74
2021/11/06 01:20:40;;;;;;;;;;;23.10;52.80;;;;;;696791;28;829;-75
2021/11/06 01:21:01;;;;;;;;;;;23.10;52.90;;;;;;696858;28;803;-76
2021/11/06 01:21:21;;;;;;;;;;;23.10;52.70;;;;;;697018;28;873;-78
2021/11/06 01:21:42;;;;;;;;;;;23.10;52.90;;;;;;696727;28;933;-77
2021/11/06 01:22:03;;;;;;;;;;;23.10;52.90;;;;;;696408;28;924;-76
2021/11/06 01:22:23;;;;;;;;;;;23.10;53.00;;;;;;696832;28;838;-76
2021/11/06 01:22:44;;;;;;;;;;;23.10;53.00;;;;;;696917;28;790;-79
2021/11/06 01:23:05;;;;;;;;;;;23.10;52.90;;;;;;695793;28;2341;-80
2021/11/06 01:23:26;;;;;;;;;;;23.10;52.90;;;;;;696625;28;1667;-82
2021/11/06 01:23:46;;;;;;;;;;;23.10;52.80;;;;;;696808;28;885;-79
2021/11/06 01:24:07;;;;;;;;;;;23.10;52.90;;;;;;696570;28;1663;-78
2021/11/06 01:24:28;;;;;;;;;;;23.10;52.90;;;;;;696591;28;913;-78
2021/11/06 01:24:49;;;;;;;;;;;23.10;52.80;;;;;;696675;28;878;-74
2021/11/06 01:25:10;;;;;;;;;;;23.10;52.90;;;;;;696729;28;881;-81
2021/11/06 01:25:30;;;;;;;;;;;23.10;52.80;;;;;;696900;28;886;-78
2021/11/06 01:25:51;;;;;;;;;;;23.10;52.80;;;;;;696935;28;822;-78
2021/11/06 01:26:11;;;;;;;;;;;23.10;52.70;;;;;;696852;28;806;-76
2021/11/06 01:26:32;;;;;;;;;;;23.10;52.50;;;;;;696871;28;864;-81
2021/11/06 01:26:53;;;;;;;;;;;23.10;52.70;;;;;;696947;28;952;-78
2021/11/06 01:27:13;;;;;;;;;;;23.10;52.60;;;;;;696681;28;1652;-81
2021/11/06 01:27:34;;;;;;;;;;;23.10;52.50;;;;;;695995;28;1781;-82
2021/11/06 01:27:55;;;;;;;;;;;23.10;52.60;;;;;;696809;28;1648;-77
2021/11/06 01:28:16;;;;;;;;;;;23.10;52.60;;;;;;696931;28;953;-80
2021/11/06 01:28:36;;;;;;;;;;;23.10;52.60;;;;;;696999;28;873;-81
2021/11/06 01:28:57;;;;;;;;;;;23.10;52.70;;;;;;696944;28;794;-78
2021/11/06 01:29:17;;;;;;;;;;;23.10;52.60;;;;;;696919;28;1572;-75
2021/11/06 01:29:38;;;;;;;;;;;23.10;52.60;;;;;;697100;28;810;-78
2021/11/06 01:29:59;;;;;;;;;;;23.10;52.60;;;;;;696882;28;830;-75
2021/11/06 01:30:19;;;;;;;;;;;23.10;52.50;;;;;;696996;28;845;-82
2021/11/06 01:30:40;;;;;;;;;;;23.10;52.50;;;;;;696942;28;941;-76
2021/11/06 01:31:00;;;;;;;;;;;23.10;52.60;;;;;;697055;28;790;-76
2021/11/06 01:31:21;;;;;;;;;;;23.10;52.60;;;;;;696840;28;916;-76
2021/11/06 01:31:41;;;;;;;;;;;23.10;52.60;;;;;;696960;28;806;-78
2021/11/06 01:32:02;;;;;;;;;;;23.10;52.50;;;;;;696771;28;961;-80
2021/11/06 01:32:23;;;;;;;;;;;23.10;52.60;;;;;;697162;28;865;-80
2021/11/06 01:32:45;;;;;;;;;;;23.10;52.50;;;;;;696895;28;896;-79
2021/11/06 01:33:08;;;;;;;;;;;23.00;52.50;;;;;;696730;28;918;-78
2021/11/06 01:33:28;;;;;;;;;;;23.10;52.50;;;;;;696833;28;1422;-79
2021/11/06 01:33:49;;;;;;;;;;;23.10;52.60;;;;;;698996;28;825;-78
2021/11/06 01:34:09;;;;;;;;;;;23.00;52.60;;;;;;699420;28;833;-83
2021/11/06 01:34:30;;;;;;;;;;;23.10;52.50;;;;;;696460;28;1348;-78
2021/11/06 01:34:50;;;;;;;;;;;23.10;52.60;;;;;;696825;28;814;-80
2021/11/06 01:35:11;;;;;;;;;;;23.10;52.60;;;;;;696670;28;818;-78
2021/11/06 01:35:32;;;;;;;;;;;23.00;52.60;;;;;;696379;28;877;-81
2021/11/06 01:35:52;;;;;;;;;;;23.00;52.60;;;;;;693960;28;842;-78
2021/11/06 01:36:13;;;;;;;;;;;23.00;52.50;;;;;;694279;28;814;-76
2021/11/06 01:36:33;;;;;;;;;;;23.00;52.50;;;;;;696875;28;873;-76
2021/11/06 01:36:54;;;;;;;;;;;23.00;52.60;;;;;;696731;28;790;-79
2021/11/06 01:37:15;;;;;;;;;;;23.00;52.60;;;;;;696797;28;1329;-83
2021/11/06 01:37:35;;;;;;;;;;;23.00;52.60;;;;;;696855;28;877;-79
2021/11/06 01:37:59;;;;;;;;;;;23.00;52.60;;;;;;696772;28;818;-82
2021/11/06 01:38:20;;;;;;;;;;;23.00;52.60;;;;;;696840;28;858;-79
2021/11/06 01:38:43;;;;;;;;;;;23.00;52.50;;;;;;696799;28;908;-83
2021/11/06 01:39:03;;;;;;;;;;;23.00;52.50;;;;;;696788;28;818;-83
2021/11/06 01:39:24;;;;;;;;;;;23.00;52.50;;;;;;694024;28;1039;-82
2021/11/06 01:39:47;;;;;;;;;;;23.00;52.60;;;;;;693684;28;1099;-76
2021/11/06 01:40:09;;;;;;;;;;;23.00;52.70;;;;;;693774;28;1334;-85
2021/11/06 01:40:30;;;;;;;;;;;23.00;52.80;;;;;;693760;28;1971;-84
2021/11/06 01:40:50;;;;;;;;;;;23.00;52.80;;;;;;693978;28;810;-85
2021/11/06 01:41:11;;;;;;;;;;;23.00;52.80;;;;;;693850;28;878;-78
2021/11/06 01:41:34;;;;;;;;;;;23.00;52.80;;;;;;693906;28;938;-81
2021/11/06 01:41:54;;;;;;;;;;;23.00;52.80;;;;;;693794;28;830;-84
2021/11/06 01:42:15;;;;;;;;;;;23.00;52.80;;;;;;693894;28;881;-76
2021/11/06 01:42:36;;;;;;;;;;;23.00;52.70;;;;;;693866;28;831;-79
2021/11/06 01:42:57;;;;;;;;;;;23.00;52.90;;;;;;694533;28;889;-83
2021/11/06 01:43:17;;;;;;;;;;;23.00;52.80;;;;;;693885;28;814;-83
2021/11/06 01:43:39;;;;;;;;;;;23.00;52.90;;;;;;693790;28;1043;-84
2021/11/06 01:43:59;;;;;;;;;;;23.00;52.80;;;;;;693766;28;960;-82
2021/11/06 01:44:20;;;;;;;;;;;23.00;52.80;;;;;;694039;28;787;-81
2021/11/06 01:44:40;;;;;;;;;;;23.00;52.70;;;;;;693873;28;877;-85
2021/11/06 01:45:01;;;;;;;;;;;23.00;52.80;;;;;;693990;28;838;-84
2021/11/06 01:45:22;;;;;;;;;;;23.00;52.90;;;;;;696616;28;913;-85
2021/11/06 01:45:42;;;;;;;;;;;23.00;52.90;;;;;;696711;28;1473;-83
2021/11/06 01:46:04;;;;;;;;;;;23.00;52.90;;;;;;696651;28;823;-82
2021/11/06 01:46:24;;;;;;;;;;;23.00;53.00;;;;;;696809;28;1022;-86
2021/11/06 01:46:45;;;;;;;;;;;23.00;52.80;;;;;;696953;28;886;-84
2021/11/06 01:47:06;;;;;;;;;;;23.00;52.80;;;;;;696781;28;909;-85
2021/11/06 01:47:26;;;;;;;;;;;23.00;52.80;;;;;;696726;28;962;-82
2021/11/06 01:47:47;;;;;;;;;;;23.00;52.80;;;;;;696937;28;913;-84
2021/11/06 01:48:08;;;;;;;;;;;23.00;52.90;;;;;;696769;28;810;-84
2021/11/06 01:48:29;;;;;;;;;;;23.00;52.90;;;;;;696840;28;901;-85
2021/11/06 01:48:49;;;;;;;;;;;22.90;52.80;;;;;;696872;28;818;-85
2021/11/06 01:49:10;;;;;;;;;;;23.00;52.90;;;;;;696709;28;933;-79
2021/11/06 01:49:30;;;;;;;;;;;23.00;52.90;;;;;;696885;28;908;-81
2021/11/06 01:49:51;;;;;;;;;;;23.00;52.80;;;;;;696879;28;837;-85
2021/11/06 01:50:12;;;;;;;;;;;22.90;52.80;;;;;;696714;28;884;-83
2021/11/06 01:50:33;;;;;;;;;;;22.90;52.80;;;;;;696721;28;928;-80
2021/11/06 01:50:54;;;;;;;;;;;22.90;52.80;;;;;;696813;28;806;-82
2021/11/06 01:51:14;;;;;;;;;;;22.90;52.80;;;;;;696871;28;1019;-85
2021/11/06 01:51:35;;;;;;;;;;;22.90;52.80;;;;;;696687;28;1516;-84
2021/11/06 01:51:55;;;;;;;;;;;22.90;52.90;;;;;;696741;28;845;-83
2021/11/06 01:52:16;;;;;;;;;;;22.90;52.80;;;;;;696759;28;783;-85
2021/11/06 01:52:37;;;;;;;;;;;22.90;52.80;;;;;;696706;28;874;-82
2021/11/06 01:52:57;;;;;;;;;;;22.90;52.80;;;;;;696720;28;921;-85
2021/11/06 01:53:18;;;;;;;;;;;23.00;53.00;;;;;;696899;28;875;-85
2021/11/06 01:53:38;;;;;;;;;;;22.90;53.00;;;;;;696871;28;896;-81
2021/11/06 01:53:59;;;;;;;;;;;22.90;53.00;;;;;;696775;28;886;-84
2021/11/06 01:54:23;;;;;;;;;;;22.90;53.00;;;;;;696818;28;897;-84
2021/11/06 01:54:43;;;;;;;;;;;22.90;53.00;;;;;;696944;28;787;-81
2021/11/06 01:55:05;;;;;;;;;;;22.90;52.90;;;;;;696765;28;889;-83
2021/11/06 01:55:25;;;;;;;;;;;22.90;53.00;;;;;;696733;28;914;-83
2021/11/06 01:55:47;;;;;;;;;;;22.90;53.00;;;;;;696889;28;850;-83
2021/11/06 01:56:07;;;;;;;;;;;22.90;53.00;;;;;;696883;28;794;-85
2021/11/06 01:56:28;;;;;;;;;;;22.90;53.10;;;;;;693621;28;1583;-85
2021/11/06 01:56:50;;;;;;;;;;;22.90;53.10;;;;;;691109;28;1250;-82
2021/11/06 01:57:10;;;;;;;;;;;22.90;53.00;;;;;;690899;28;1724;-81
2021/11/06 01:57:31;;;;;;;;;;;22.90;53.00;;;;;;691644;28;1429;-83
2021/11/06 01:57:52;;;;;;;;;;;22.90;53.00;;;;;;691105;28;1509;-82
2021/11/06 01:58:12;;;;;;;;;;;22.90;53.10;;;;;;691020;28;952;-84
2021/11/06 01:58:33;;;;;;;;;;;22.90;53.00;;;;;;691412;28;827;-78
2021/11/06 01:58:54;;;;;;;;;;;22.90;53.00;;;;;;696559;28;1347;-84
2021/11/06 01:59:15;;;;;;;;;;;22.90;53.00;;;;;;696820;28;1326;-83
2021/11/06 01:59:35;;;;;;;;;;;22.90;53.00;;;;;;693376;28;916;-84
2021/11/06 01:59:56;;;;;;;;;;;22.90;53.00;;;;;;693873;28;826;-82
2021/11/06 02:00:19;;;;;;;;;;;22.90;53.00;;;;;;693977;28;794;-83
2021/11/06 02:00:40;;;;;;;;;;;22.90;53.00;;;;;;693758;28;846;-84
2021/11/06 02:01:01;;;;;;;;;;;22.90;53.00;;;;;;693829;28;886;-83
2021/11/06 02:01:22;;;;;;;;;;;22.90;53.00;;;;;;694684;28;803;-83
2021/11/06 02:01:42;;;;;;;;;;;22.90;52.90;;;;;;696841;28;806;-84
2021/11/06 02:02:03;;;;;;;;;;;22.90;53.00;;;;;;696639;28;905;-84
2021/11/06 02:02:24;;;;;;;;;;;22.90;53.00;;;;;;693863;28;1148;-82
2021/11/06 02:02:44;;;;;;;;;;;22.90;53.20;;;;;;694015;28;874;-84
2021/11/06 02:03:06;;;;;;;;;;;22.90;53.20;;;;;;693949;28;787;-84
2021/11/06 02:03:27;;;;;;;;;;;22.90;53.10;;;;;;693716;28;1485;-82
2021/11/06 02:03:49;;;;;;;;;;;22.90;53.20;;;;;;694030;28;945;-82
2021/11/06 02:04:09;;;;;;;;;;;22.90;53.00;;;;;;694720;28;885;-84
2021/11/06 02:04:30;;;;;;;;;;;22.90;53.00;;;;;;696791;28;897;-84
2021/11/06 02:04:50;;;;;;;;;;;22.90;53.00;;;;;;696867;28;927;-83
2021/11/06 02:05:12;;;;;;;;;;;22.90;53.10;;;;;;696748;28;878;-84
2021/11/06 02:05:32;;;;;;;;;;;22.90;53.00;;;;;;696751;28;807;-84
2021/11/06 02:05:53;;;;;;;;;;;22.90;53.00;;;;;;696934;28;1156;-81